sensor_id;sensor_type;location;lat;lon;timestamp;P1;durP1;ratioP1;P2;durP2;ratioP2
55202;SDS011;41077;52.956;6.796;2022-08-03T00:00:05;25.98;;;23.90;;
55202;SDS011;41077;52.956;6.796;2022-08-03T00:02:32;25.17;;;23.05;;
55202;SDS011;41077;52.956;6.796;2022-08-03T00:04:57;24.20;;;22.05;;
55202;SDS011;41077;52.956;6.796;2022-08-03T00:07:23;24.15;;;22.27;;
55202;SDS011;41077;52.956;6.796;2022-08-03T00:09:49;22.88;;;21.13;;
55202;SDS011;41077;52.956;6.796;2022-08-03T00:12:14;26.75;;;24.45;;
55202;SDS011;41077;52.956;6.796;2022-08-03T00:14:40;25.38;;;22.98;;
55202;SDS011;41077;52.956;6.796;2022-08-03T00:17:06;25.20;;;23.63;;
55202;SDS011;41077;52.956;6.796;2022-08-03T00:19:32;24.35;;;22.15;;
55202;SDS011;41077;52.956;6.796;2022-08-03T00:21:58;25.85;;;23.83;;
55202;SDS011;41077;52.956;6.796;2022-08-03T00:24:23;25.10;;;22.75;;
55202;SDS011;41077;52.956;6.796;2022-08-03T00:26:49;24.83;;;23.25;;
55202;SDS011;41077;52.956;6.796;2022-08-03T00:29:15;26.10;;;24.10;;
55202;SDS011;41077;52.956;6.796;2022-08-03T00:31:40;24.25;;;22.70;;
55202;SDS011;41077;52.956;6.796;2022-08-03T00:34:06;24.70;;;22.77;;
55202;SDS011;41077;52.956;6.796;2022-08-03T00:36:32;21.80;;;20.05;;
55202;SDS011;41077;52.956;6.796;2022-08-03T00:38:57;25.77;;;23.60;;
55202;SDS011;41077;52.956;6.796;2022-08-03T00:41:23;25.02;;;23.40;;
55202;SDS011;41077;52.956;6.796;2022-08-03T00:43:49;25.05;;;23.20;;
55202;SDS011;41077;52.956;6.796;2022-08-03T00:46:14;24.17;;;22.48;;
55202;SDS011;41077;52.956;6.796;2022-08-03T00:48:40;25.02;;;22.90;;
55202;SDS011;41077;52.956;6.796;2022-08-03T00:51:06;25.50;;;23.60;;
55202;SDS011;41077;52.956;6.796;2022-08-03T00:53:33;23.40;;;21.67;;
55202;SDS011;41077;52.956;6.796;2022-08-03T00:56:00;24.05;;;22.20;;
55202;SDS011;41077;52.956;6.796;2022-08-03T00:58:26;24.98;;;22.75;;
55202;SDS011;41077;52.956;6.796;2022-08-03T01:00:51;25.05;;;23.02;;
55202;SDS011;41077;52.956;6.796;2022-08-03T01:03:17;23.88;;;22.17;;
55202;SDS011;41077;52.956;6.796;2022-08-03T01:05:57;24.58;;;22.85;;
55202;SDS011;41077;52.956;6.796;2022-08-03T01:08:38;23.90;;;21.58;;
55202;SDS011;41077;52.956;6.796;2022-08-03T01:14:26;23.08;;;21.60;;
55202;SDS011;41077;52.956;6.796;2022-08-03T01:17:42;27.92;;;25.17;;
55202;SDS011;41077;52.956;6.796;2022-08-03T01:20:33;26.02;;;24.42;;
55202;SDS011;41077;52.956;6.796;2022-08-03T01:31:38;27.17;;;25.42;;
55202;SDS011;41077;52.956;6.796;2022-08-03T01:34:07;27.55;;;25.35;;
55202;SDS011;41077;52.956;6.796;2022-08-03T01:36:38;27.20;;;25.58;;
55202;SDS011;41077;52.956;6.796;2022-08-03T01:39:08;30.83;;;28.33;;
55202;SDS011;41077;52.956;6.796;2022-08-03T01:41:37;28.00;;;25.88;;
55202;SDS011;41077;52.956;6.796;2022-08-03T01:44:07;26.17;;;24.33;;
55202;SDS011;41077;52.956;6.796;2022-08-03T01:46:34;28.80;;;26.85;;
55202;SDS011;41077;52.956;6.796;2022-08-03T01:49:02;27.08;;;25.30;;
55202;SDS011;41077;52.956;6.796;2022-08-03T01:51:32;26.02;;;24.23;;
55202;SDS011;41077;52.956;6.796;2022-08-03T01:54:00;59.22;;;55.58;;
55202;SDS011;41077;52.956;6.796;2022-08-03T01:56:27;58.00;;;54.47;;
55202;SDS011;41077;52.956;6.796;2022-08-03T01:58:55;60.63;;;57.15;;
55202;SDS011;41077;52.956;6.796;2022-08-03T02:01:24;55.20;;;51.92;;
55202;SDS011;41077;52.956;6.796;2022-08-03T02:03:53;55.92;;;52.22;;
55202;SDS011;41077;52.956;6.796;2022-08-03T02:06:20;59.60;;;56.42;;
55202;SDS011;41077;52.956;6.796;2022-08-03T02:08:48;57.60;;;53.88;;
55202;SDS011;41077;52.956;6.796;2022-08-03T02:11:15;54.10;;;50.72;;
55202;SDS011;41077;52.956;6.796;2022-08-03T02:13:41;55.63;;;52.08;;
55202;SDS011;41077;52.956;6.796;2022-08-03T02:16:08;57.28;;;53.40;;
55202;SDS011;41077;52.956;6.796;2022-08-03T02:18:36;58.45;;;54.72;;
55202;SDS011;41077;52.956;6.796;2022-08-03T02:21:04;55.95;;;52.40;;
55202;SDS011;41077;52.956;6.796;2022-08-03T02:23:34;52.08;;;48.80;;
55202;SDS011;41077;52.956;6.796;2022-08-03T02:26:01;58.03;;;54.70;;
55202;SDS011;41077;52.956;6.796;2022-08-03T02:28:36;59.75;;;56.08;;
55202;SDS011;41077;52.956;6.796;2022-08-03T02:31:06;57.00;;;53.38;;
55202;SDS011;41077;52.956;6.796;2022-08-03T02:33:42;54.22;;;50.75;;
55202;SDS011;41077;52.956;6.796;2022-08-03T02:36:11;53.75;;;50.45;;
55202;SDS011;41077;52.956;6.796;2022-08-03T02:38:40;54.17;;;50.83;;
55202;SDS011;41077;52.956;6.796;2022-08-03T02:41:08;53.08;;;49.65;;
55202;SDS011;41077;52.956;6.796;2022-08-03T02:43:40;51.85;;;48.80;;
55202;SDS011;41077;52.956;6.796;2022-08-03T02:46:10;53.80;;;50.53;;
55202;SDS011;41077;52.956;6.796;2022-08-03T02:48:38;54.28;;;50.80;;
55202;SDS011;41077;52.956;6.796;2022-08-03T02:51:05;53.15;;;49.72;;
55202;SDS011;41077;52.956;6.796;2022-08-03T02:53:31;54.83;;;51.22;;
55202;SDS011;41077;52.956;6.796;2022-08-03T02:55:58;58.30;;;54.70;;
55202;SDS011;41077;52.956;6.796;2022-08-03T02:58:26;58.08;;;54.30;;
55202;SDS011;41077;52.956;6.796;2022-08-03T03:00:55;52.25;;;48.92;;
55202;SDS011;41077;52.956;6.796;2022-08-03T03:03:21;55.17;;;51.60;;
55202;SDS011;41077;52.956;6.796;2022-08-03T03:05:48;53.70;;;50.22;;
55202;SDS011;41077;52.956;6.796;2022-08-03T03:08:16;55.08;;;51.47;;
55202;SDS011;41077;52.956;6.796;2022-08-03T03:10:43;53.67;;;50.45;;
55202;SDS011;41077;52.956;6.796;2022-08-03T03:13:10;54.33;;;50.90;;
55202;SDS011;41077;52.956;6.796;2022-08-03T03:15:38;55.17;;;51.80;;
55202;SDS011;41077;52.956;6.796;2022-08-03T03:18:05;54.45;;;51.25;;
55202;SDS011;41077;52.956;6.796;2022-08-03T03:20:34;52.92;;;49.35;;
55202;SDS011;41077;52.956;6.796;2022-08-03T03:23:01;55.30;;;52.08;;
55202;SDS011;41077;52.956;6.796;2022-08-03T03:25:28;52.03;;;48.85;;
55202;SDS011;41077;52.956;6.796;2022-08-03T03:27:56;53.95;;;50.28;;
55202;SDS011;41077;52.956;6.796;2022-08-03T03:30:22;54.35;;;50.55;;
55202;SDS011;41077;52.956;6.796;2022-08-03T03:32:48;62.30;;;58.42;;
55202;SDS011;41077;52.956;6.796;2022-08-03T03:35:14;54.28;;;50.88;;
55202;SDS011;41077;52.956;6.796;2022-08-03T03:37:40;56.63;;;53.15;;
55202;SDS011;41077;52.956;6.796;2022-08-03T03:40:06;60.92;;;57.15;;
55202;SDS011;41077;52.956;6.796;2022-08-03T03:42:33;57.45;;;53.80;;
55202;SDS011;41077;52.956;6.796;2022-08-03T03:45:02;59.67;;;55.58;;
55202;SDS011;41077;52.956;6.796;2022-08-03T03:47:28;63.15;;;59.05;;
55202;SDS011;41077;52.956;6.796;2022-08-03T03:49:55;56.47;;;52.40;;
55202;SDS011;41077;52.956;6.796;2022-08-03T03:52:21;59.55;;;56.42;;
55202;SDS011;41077;52.956;6.796;2022-08-03T03:54:47;59.72;;;55.85;;
55202;SDS011;41077;52.956;6.796;2022-08-03T03:57:13;57.95;;;54.58;;
55202;SDS011;41077;52.956;6.796;2022-08-03T03:59:39;59.13;;;54.90;;
55202;SDS011;41077;52.956;6.796;2022-08-03T04:02:06;58.15;;;54.33;;
55202;SDS011;41077;52.956;6.796;2022-08-03T04:04:34;66.00;;;61.33;;
55202;SDS011;41077;52.956;6.796;2022-08-03T04:07:19;60.70;;;56.83;;
55202;SDS011;41077;52.956;6.796;2022-08-03T04:10:06;66.07;;;62.22;;
55202;SDS011;41077;52.956;6.796;2022-08-03T04:12:56;66.00;;;62.10;;
55202;SDS011;41077;52.956;6.796;2022-08-03T04:15:24;59.33;;;55.85;;
55202;SDS011;41077;52.956;6.796;2022-08-03T04:17:52;57.40;;;53.88;;
55202;SDS011;41077;52.956;6.796;2022-08-03T04:20:21;59.05;;;55.45;;
55202;SDS011;41077;52.956;6.796;2022-08-03T04:22:50;53.90;;;50.75;;
55202;SDS011;41077;52.956;6.796;2022-08-03T04:25:18;56.80;;;53.28;;
55202;SDS011;41077;52.956;6.796;2022-08-03T04:27:47;58.08;;;54.40;;
55202;SDS011;41077;52.956;6.796;2022-08-03T04:30:16;58.85;;;54.25;;
55202;SDS011;41077;52.956;6.796;2022-08-03T04:32:43;61.63;;;57.92;;
55202;SDS011;41077;52.956;6.796;2022-08-03T04:35:16;58.60;;;55.13;;
55202;SDS011;41077;52.956;6.796;2022-08-03T04:37:50;56.42;;;52.28;;
55202;SDS011;41077;52.956;6.796;2022-08-03T04:40:40;61.45;;;57.33;;
55202;SDS011;41077;52.956;6.796;2022-08-03T04:43:06;58.33;;;54.20;;
55202;SDS011;41077;52.956;6.796;2022-08-03T04:45:35;66.60;;;62.30;;
55202;SDS011;41077;52.956;6.796;2022-08-03T04:48:02;54.70;;;50.38;;
55202;SDS011;41077;52.956;6.796;2022-08-03T04:50:28;55.58;;;51.65;;
55202;SDS011;41077;52.956;6.796;2022-08-03T04:52:54;52.97;;;49.10;;
55202;SDS011;41077;52.956;6.796;2022-08-03T04:55:24;55.53;;;51.75;;
55202;SDS011;41077;52.956;6.796;2022-08-03T04:57:54;58.78;;;54.88;;
55202;SDS011;41077;52.956;6.796;2022-08-03T05:00:20;58.05;;;54.40;;
55202;SDS011;41077;52.956;6.796;2022-08-03T05:02:46;61.17;;;57.25;;
55202;SDS011;41077;52.956;6.796;2022-08-03T05:05:12;55.10;;;51.53;;
55202;SDS011;41077;52.956;6.796;2022-08-03T05:07:39;62.15;;;57.45;;
55202;SDS011;41077;52.956;6.796;2022-08-03T05:10:06;59.55;;;55.25;;
55202;SDS011;41077;52.956;6.796;2022-08-03T05:12:33;56.13;;;52.05;;
55202;SDS011;41077;52.956;6.796;2022-08-03T05:14:59;65.93;;;61.72;;
55202;SDS011;41077;52.956;6.796;2022-08-03T05:17:25;57.35;;;53.08;;
55202;SDS011;41077;52.956;6.796;2022-08-03T05:19:52;56.80;;;52.92;;
55202;SDS011;41077;52.956;6.796;2022-08-03T05:22:18;54.15;;;50.33;;
55202;SDS011;41077;52.956;6.796;2022-08-03T05:24:44;58.35;;;54.40;;
55202;SDS011;41077;52.956;6.796;2022-08-03T05:27:09;53.97;;;49.60;;
55202;SDS011;41077;52.956;6.796;2022-08-03T05:29:41;59.40;;;55.58;;
55202;SDS011;41077;52.956;6.796;2022-08-03T05:32:07;49.33;;;45.47;;
55202;SDS011;41077;52.956;6.796;2022-08-03T05:34:33;56.22;;;52.50;;
55202;SDS011;41077;52.956;6.796;2022-08-03T05:36:59;53.28;;;49.65;;
55202;SDS011;41077;52.956;6.796;2022-08-03T05:39:24;53.25;;;49.15;;
55202;SDS011;41077;52.956;6.796;2022-08-03T05:41:50;52.83;;;48.92;;
55202;SDS011;41077;52.956;6.796;2022-08-03T05:44:16;53.50;;;49.80;;
55202;SDS011;41077;52.956;6.796;2022-08-03T05:46:41;52.70;;;49.20;;
55202;SDS011;41077;52.956;6.796;2022-08-03T05:49:07;58.08;;;53.65;;
55202;SDS011;41077;52.956;6.796;2022-08-03T05:51:33;53.65;;;49.95;;
55202;SDS011;41077;52.956;6.796;2022-08-03T05:53:59;58.70;;;54.47;;
55202;SDS011;41077;52.956;6.796;2022-08-03T05:56:25;60.40;;;56.15;;
55202;SDS011;41077;52.956;6.796;2022-08-03T05:58:51;55.92;;;52.20;;
55202;SDS011;41077;52.956;6.796;2022-08-03T06:01:17;51.95;;;47.97;;
55202;SDS011;41077;52.956;6.796;2022-08-03T06:03:46;61.10;;;57.17;;
55202;SDS011;41077;52.956;6.796;2022-08-03T06:06:12;52.20;;;48.58;;
55202;SDS011;41077;52.956;6.796;2022-08-03T06:08:39;60.90;;;56.33;;
55202;SDS011;41077;52.956;6.796;2022-08-03T06:11:06;51.13;;;47.20;;
55202;SDS011;41077;52.956;6.796;2022-08-03T06:13:32;56.50;;;53.10;;
55202;SDS011;41077;52.956;6.796;2022-08-03T06:15:58;54.13;;;49.80;;
55202;SDS011;41077;52.956;6.796;2022-08-03T06:18:23;50.85;;;47.35;;
55202;SDS011;41077;52.956;6.796;2022-08-03T06:20:49;52.08;;;48.35;;
55202;SDS011;41077;52.956;6.796;2022-08-03T06:23:16;53.50;;;49.72;;
55202;SDS011;41077;52.956;6.796;2022-08-03T06:25:42;59.80;;;55.47;;
55202;SDS011;41077;52.956;6.796;2022-08-03T06:28:07;56.70;;;53.13;;
55202;SDS011;41077;52.956;6.796;2022-08-03T06:30:33;62.33;;;57.88;;
55202;SDS011;41077;52.956;6.796;2022-08-03T06:32:59;56.67;;;52.83;;
55202;SDS011;41077;52.956;6.796;2022-08-03T06:35:25;64.32;;;59.70;;
55202;SDS011;41077;52.956;6.796;2022-08-03T06:37:52;83.85;;;78.60;;
55202;SDS011;41077;52.956;6.796;2022-08-03T06:40:19;59.10;;;54.78;;
55202;SDS011;41077;52.956;6.796;2022-08-03T06:42:57;79.63;;;74.45;;
55202;SDS011;41077;52.956;6.796;2022-08-03T06:45:23;62.42;;;58.38;;
55202;SDS011;41077;52.956;6.796;2022-08-03T06:47:59;60.50;;;56.10;;
55202;SDS011;41077;52.956;6.796;2022-08-03T06:50:27;54.25;;;50.08;;
55202;SDS011;41077;52.956;6.796;2022-08-03T06:52:53;93.85;;;88.10;;
55202;SDS011;41077;52.956;6.796;2022-08-03T06:55:18;53.03;;;48.83;;
55202;SDS011;41077;52.956;6.796;2022-08-03T06:57:44;73.40;;;68.78;;
55202;SDS011;41077;52.956;6.796;2022-08-03T07:00:10;85.53;;;80.25;;
55202;SDS011;41077;52.956;6.796;2022-08-03T07:02:36;86.93;;;81.65;;
55202;SDS011;41077;52.956;6.796;2022-08-03T07:05:03;59.97;;;56.05;;
55202;SDS011;41077;52.956;6.796;2022-08-03T07:07:29;107.97;;;101.75;;
55202;SDS011;41077;52.956;6.796;2022-08-03T07:09:55;60.38;;;56.28;;
55202;SDS011;41077;52.956;6.796;2022-08-03T07:12:21;72.97;;;68.18;;
55202;SDS011;41077;52.956;6.796;2022-08-03T07:14:46;76.38;;;71.53;;
55202;SDS011;41077;52.956;6.796;2022-08-03T07:17:12;56.10;;;51.63;;
55202;SDS011;41077;52.956;6.796;2022-08-03T07:19:38;57.47;;;52.90;;
55202;SDS011;41077;52.956;6.796;2022-08-03T07:22:04;81.25;;;76.47;;
55202;SDS011;41077;52.956;6.796;2022-08-03T07:24:29;72.60;;;67.63;;
55202;SDS011;41077;52.956;6.796;2022-08-03T07:26:55;57.58;;;53.03;;
55202;SDS011;41077;52.956;6.796;2022-08-03T07:29:20;68.75;;;64.20;;
55202;SDS011;41077;52.956;6.796;2022-08-03T07:31:46;62.45;;;57.90;;
55202;SDS011;41077;52.956;6.796;2022-08-03T07:34:12;60.90;;;56.08;;
55202;SDS011;41077;52.956;6.796;2022-08-03T07:36:38;73.50;;;68.85;;
55202;SDS011;41077;52.956;6.796;2022-08-03T07:39:03;73.13;;;67.95;;
55202;SDS011;41077;52.956;6.796;2022-08-03T07:41:29;55.78;;;51.72;;
55202;SDS011;41077;52.956;6.796;2022-08-03T07:43:55;59.95;;;55.13;;
55202;SDS011;41077;52.956;6.796;2022-08-03T07:46:21;57.30;;;53.53;;
55202;SDS011;41077;52.956;6.796;2022-08-03T07:48:47;60.30;;;56.42;;
55202;SDS011;41077;52.956;6.796;2022-08-03T07:51:13;69.35;;;64.93;;
55202;SDS011;41077;52.956;6.796;2022-08-03T07:53:38;64.30;;;59.88;;
55202;SDS011;41077;52.956;6.796;2022-08-03T07:56:04;71.32;;;66.28;;
55202;SDS011;41077;52.956;6.796;2022-08-03T07:58:30;71.03;;;66.63;;
55202;SDS011;41077;52.956;6.796;2022-08-03T08:00:56;51.38;;;47.13;;
55202;SDS011;41077;52.956;6.796;2022-08-03T08:03:21;87.45;;;81.82;;
55202;SDS011;41077;52.956;6.796;2022-08-03T08:05:47;103.00;;;96.80;;
55202;SDS011;41077;52.956;6.796;2022-08-03T08:08:14;62.53;;;58.10;;
55202;SDS011;41077;52.956;6.796;2022-08-03T08:10:39;70.88;;;65.82;;
55202;SDS011;41077;52.956;6.796;2022-08-03T08:13:05;74.65;;;69.80;;
55202;SDS011;41077;52.956;6.796;2022-08-03T08:15:31;60.13;;;55.92;;
55202;SDS011;41077;52.956;6.796;2022-08-03T08:17:58;82.43;;;76.80;;
55202;SDS011;41077;52.956;6.796;2022-08-03T08:20:26;91.60;;;85.30;;
55202;SDS011;41077;52.956;6.796;2022-08-03T08:22:54;56.53;;;52.38;;
55202;SDS011;41077;52.956;6.796;2022-08-03T08:25:21;70.07;;;64.95;;
55202;SDS011;41077;52.956;6.796;2022-08-03T08:27:48;65.28;;;60.53;;
55202;SDS011;41077;52.956;6.796;2022-08-03T08:30:15;72.78;;;67.93;;
55202;SDS011;41077;52.956;6.796;2022-08-03T08:32:43;64.28;;;59.13;;
55202;SDS011;41077;52.956;6.796;2022-08-03T08:35:09;59.45;;;54.17;;
55202;SDS011;41077;52.956;6.796;2022-08-03T08:37:36;63.38;;;59.10;;
55202;SDS011;41077;52.956;6.796;2022-08-03T08:40:02;78.38;;;72.93;;
55202;SDS011;41077;52.956;6.796;2022-08-03T08:42:32;63.08;;;58.17;;
55202;SDS011;41077;52.956;6.796;2022-08-03T08:45:01;65.28;;;60.90;;
55202;SDS011;41077;52.956;6.796;2022-08-03T08:47:29;60.17;;;55.60;;
55202;SDS011;41077;52.956;6.796;2022-08-03T08:49:56;57.60;;;53.15;;
55202;SDS011;41077;52.956;6.796;2022-08-03T08:52:24;62.25;;;57.72;;
55202;SDS011;41077;52.956;6.796;2022-08-03T08:54:55;72.45;;;67.43;;
55202;SDS011;41077;52.956;6.796;2022-08-03T08:57:28;80.60;;;75.35;;
55202;SDS011;41077;52.956;6.796;2022-08-03T08:59:55;57.28;;;52.63;;
55202;SDS011;41077;52.956;6.796;2022-08-03T09:02:24;49.65;;;46.10;;
55202;SDS011;41077;52.956;6.796;2022-08-03T09:04:53;53.97;;;49.15;;
55202;SDS011;41077;52.956;6.796;2022-08-03T09:07:19;65.43;;;60.60;;
55202;SDS011;41077;52.956;6.796;2022-08-03T09:09:45;95.45;;;88.97;;
55202;SDS011;41077;52.956;6.796;2022-08-03T09:12:10;59.95;;;55.35;;
55202;SDS011;41077;52.956;6.796;2022-08-03T09:14:36;70.85;;;66.13;;
55202;SDS011;41077;52.956;6.796;2022-08-03T09:17:02;59.47;;;55.03;;
55202;SDS011;41077;52.956;6.796;2022-08-03T09:19:29;54.42;;;50.38;;
55202;SDS011;41077;52.956;6.796;2022-08-03T09:22:06;60.20;;;55.60;;
55202;SDS011;41077;52.956;6.796;2022-08-03T09:24:58;59.10;;;54.50;;
55202;SDS011;41077;52.956;6.796;2022-08-03T09:27:25;53.35;;;49.72;;
55202;SDS011;41077;52.956;6.796;2022-08-03T09:29:51;55.17;;;50.70;;
55202;SDS011;41077;52.956;6.796;2022-08-03T09:32:18;59.95;;;55.55;;
55202;SDS011;41077;52.956;6.796;2022-08-03T09:34:49;58.97;;;54.30;;
55202;SDS011;41077;52.956;6.796;2022-08-03T09:37:16;60.55;;;56.13;;
55202;SDS011;41077;52.956;6.796;2022-08-03T09:39:44;57.47;;;53.80;;
55202;SDS011;41077;52.956;6.796;2022-08-03T09:42:11;57.63;;;53.28;;
55202;SDS011;41077;52.956;6.796;2022-08-03T09:44:40;49.50;;;45.70;;
55202;SDS011;41077;52.956;6.796;2022-08-03T09:47:13;53.97;;;49.90;;
55202;SDS011;41077;52.956;6.796;2022-08-03T09:49:41;55.65;;;51.85;;
55202;SDS011;41077;52.956;6.796;2022-08-03T09:52:20;90.20;;;84.03;;
55202;SDS011;41077;52.956;6.796;2022-08-03T09:54:53;54.13;;;50.05;;
55202;SDS011;41077;52.956;6.796;2022-08-03T09:57:22;70.63;;;65.93;;
55202;SDS011;41077;52.956;6.796;2022-08-03T09:59:50;52.50;;;48.58;;
55202;SDS011;41077;52.956;6.796;2022-08-03T10:02:21;51.70;;;48.20;;
55202;SDS011;41077;52.956;6.796;2022-08-03T10:04:50;67.50;;;62.88;;
55202;SDS011;41077;52.956;6.796;2022-08-03T10:07:18;44.53;;;41.05;;
55202;SDS011;41077;52.956;6.796;2022-08-03T10:09:55;52.03;;;48.50;;
55202;SDS011;41077;52.956;6.796;2022-08-03T10:12:26;83.72;;;77.97;;
55202;SDS011;41077;52.956;6.796;2022-08-03T10:14:52;55.15;;;50.88;;
55202;SDS011;41077;52.956;6.796;2022-08-03T10:17:19;44.25;;;40.88;;
55202;SDS011;41077;52.956;6.796;2022-08-03T10:19:46;53.60;;;50.25;;
55202;SDS011;41077;52.956;6.796;2022-08-03T10:22:14;49.75;;;45.40;;
55202;SDS011;41077;52.956;6.796;2022-08-03T10:24:51;55.17;;;51.10;;
55202;SDS011;41077;52.956;6.796;2022-08-03T10:27:21;49.50;;;45.47;;
55202;SDS011;41077;52.956;6.796;2022-08-03T10:29:50;50.40;;;45.90;;
55202;SDS011;41077;52.956;6.796;2022-08-03T10:32:42;52.38;;;48.17;;
55202;SDS011;41077;52.956;6.796;2022-08-03T10:35:17;67.72;;;62.22;;
55202;SDS011;41077;52.956;6.796;2022-08-03T10:37:51;48.28;;;45.00;;
55202;SDS011;41077;52.956;6.796;2022-08-03T10:40:22;67.25;;;62.65;;
55202;SDS011;41077;52.956;6.796;2022-08-03T10:42:51;48.67;;;44.88;;
55202;SDS011;41077;52.956;6.796;2022-08-03T10:45:22;74.68;;;69.88;;
55202;SDS011;41077;52.956;6.796;2022-08-03T10:47:50;58.88;;;54.40;;
55202;SDS011;41077;52.956;6.796;2022-08-03T10:50:18;46.72;;;42.78;;
55202;SDS011;41077;52.956;6.796;2022-08-03T10:53:03;43.90;;;40.00;;
55202;SDS011;41077;52.956;6.796;2022-08-03T10:55:36;90.22;;;83.65;;
55202;SDS011;41077;52.956;6.796;2022-08-03T11:01:11;38.72;;;35.33;;
55202;SDS011;41077;52.956;6.796;2022-08-03T11:06:19;102.72;;;95.97;;
55202;SDS011;41077;52.956;6.796;2022-08-03T11:08:47;33.85;;;30.35;;
55202;SDS011;41077;52.956;6.796;2022-08-03T11:16:43;40.20;;;37.05;;
55202;SDS011;41077;52.956;6.796;2022-08-03T11:19:12;50.53;;;46.20;;
55202;SDS011;41077;52.956;6.796;2022-08-03T11:48:46;34.20;;;30.85;;
55202;SDS011;41077;52.956;6.796;2022-08-03T11:53:44;31.08;;;26.55;;
55202;SDS011;41077;52.956;6.796;2022-08-03T11:56:13;25.08;;;22.67;;
55202;SDS011;41077;52.956;6.796;2022-08-03T11:58:45;31.48;;;28.23;;
55202;SDS011;41077;52.956;6.796;2022-08-03T12:01:16;34.10;;;31.08;;
55202;SDS011;41077;52.956;6.796;2022-08-03T12:03:42;24.15;;;18.25;;
55202;SDS011;41077;52.956;6.796;2022-08-03T12:06:09;36.55;;;33.22;;
55202;SDS011;41077;52.956;6.796;2022-08-03T12:08:36;24.23;;;14.68;;
55202;SDS011;41077;52.956;6.796;2022-08-03T12:11:03;18.65;;;14.20;;
55202;SDS011;41077;52.956;6.796;2022-08-03T12:16:19;16.05;;;7.93;;
55202;SDS011;41077;52.956;6.796;2022-08-03T12:19:02;14.90;;;11.50;;
55202;SDS011;41077;52.956;6.796;2022-08-03T12:21:29;23.50;;;20.80;;
55202;SDS011;41077;52.956;6.796;2022-08-03T12:23:58;29.60;;;17.83;;
55202;SDS011;41077;52.956;6.796;2022-08-03T12:26:27;25.08;;;19.83;;
55202;SDS011;41077;52.956;6.796;2022-08-03T12:28:54;18.05;;;15.25;;
55202;SDS011;41077;52.956;6.796;2022-08-03T12:31:21;20.17;;;11.77;;
55202;SDS011;41077;52.956;6.796;2022-08-03T12:33:53;22.65;;;9.82;;
55202;SDS011;41077;52.956;6.796;2022-08-03T12:36:26;18.20;;;9.68;;
55202;SDS011;41077;52.956;6.796;2022-08-03T12:38:55;18.98;;;10.80;;
55202;SDS011;41077;52.956;6.796;2022-08-03T12:41:30;15.38;;;8.98;;
55202;SDS011;41077;52.956;6.796;2022-08-03T12:44:03;22.25;;;12.60;;
55202;SDS011;41077;52.956;6.796;2022-08-03T12:46:33;15.73;;;9.73;;
55202;SDS011;41077;52.956;6.796;2022-08-03T12:49:10;17.58;;;14.88;;
55202;SDS011;41077;52.956;6.796;2022-08-03T12:54:08;22.23;;;11.13;;
55202;SDS011;41077;52.956;6.796;2022-08-03T12:59:40;17.23;;;8.88;;
55202;SDS011;41077;52.956;6.796;2022-08-03T13:02:16;19.77;;;10.07;;
55202;SDS011;41077;52.956;6.796;2022-08-03T13:04:44;49.55;;;45.15;;
55202;SDS011;41077;52.956;6.796;2022-08-03T13:07:11;17.10;;;8.00;;
55202;SDS011;41077;52.956;6.796;2022-08-03T13:09:45;22.73;;;20.40;;
55202;SDS011;41077;52.956;6.796;2022-08-03T13:12:13;17.13;;;8.50;;
55202;SDS011;41077;52.956;6.796;2022-08-03T13:14:40;19.83;;;10.15;;
55202;SDS011;41077;52.956;6.796;2022-08-03T13:17:07;19.27;;;10.98;;
55202;SDS011;41077;52.956;6.796;2022-08-03T13:19:34;15.60;;;8.50;;
55202;SDS011;41077;52.956;6.796;2022-08-03T13:22:00;16.52;;;11.77;;
55202;SDS011;41077;52.956;6.796;2022-08-03T13:24:36;15.95;;;8.38;;
55202;SDS011;41077;52.956;6.796;2022-08-03T13:27:02;30.55;;;14.07;;
55202;SDS011;41077;52.956;6.796;2022-08-03T13:29:30;13.80;;;9.73;;
55202;SDS011;41077;52.956;6.796;2022-08-03T13:31:56;21.65;;;19.50;;
55202;SDS011;41077;52.956;6.796;2022-08-03T13:34:21;15.88;;;7.75;;
55202;SDS011;41077;52.956;6.796;2022-08-03T13:36:47;19.58;;;15.35;;
55202;SDS011;41077;52.956;6.796;2022-08-03T13:39:13;21.63;;;19.20;;
55202;SDS011;41077;52.956;6.796;2022-08-03T13:41:38;17.08;;;9.85;;
55202;SDS011;41077;52.956;6.796;2022-08-03T13:44:04;16.95;;;9.73;;
55202;SDS011;41077;52.956;6.796;2022-08-03T13:46:30;15.82;;;9.00;;
55202;SDS011;41077;52.956;6.796;2022-08-03T13:48:55;16.35;;;11.93;;
55202;SDS011;41077;52.956;6.796;2022-08-03T13:51:21;26.05;;;11.30;;
55202;SDS011;41077;52.956;6.796;2022-08-03T13:53:47;20.75;;;10.80;;
55202;SDS011;41077;52.956;6.796;2022-08-03T13:56:15;25.10;;;11.13;;
55202;SDS011;41077;52.956;6.796;2022-08-03T13:58:40;13.98;;;10.55;;
55202;SDS011;41077;52.956;6.796;2022-08-03T14:01:06;22.45;;;9.32;;
55202;SDS011;41077;52.956;6.796;2022-08-03T14:03:32;19.17;;;9.52;;
55202;SDS011;41077;52.956;6.796;2022-08-03T14:05:57;15.65;;;9.35;;
55202;SDS011;41077;52.956;6.796;2022-08-03T14:08:23;18.90;;;11.35;;
55202;SDS011;41077;52.956;6.796;2022-08-03T14:10:48;29.92;;;27.27;;
55202;SDS011;41077;52.956;6.796;2022-08-03T14:13:14;19.67;;;11.38;;
55202;SDS011;41077;52.956;6.796;2022-08-03T14:15:40;19.40;;;11.48;;
55202;SDS011;41077;52.956;6.796;2022-08-03T14:18:07;15.98;;;11.43;;
55202;SDS011;41077;52.956;6.796;2022-08-03T14:20:33;20.45;;;10.63;;
55202;SDS011;41077;52.956;6.796;2022-08-03T14:22:59;22.05;;;10.20;;
55202;SDS011;41077;52.956;6.796;2022-08-03T14:25:24;18.80;;;11.70;;
55202;SDS011;41077;52.956;6.796;2022-08-03T14:27:50;28.98;;;20.70;;
55202;SDS011;41077;52.956;6.796;2022-08-03T14:30:16;16.73;;;12.40;;
55202;SDS011;41077;52.956;6.796;2022-08-03T14:32:41;18.17;;;10.75;;
55202;SDS011;41077;52.956;6.796;2022-08-03T14:35:07;21.15;;;13.18;;
55202;SDS011;41077;52.956;6.796;2022-08-03T14:37:34;15.35;;;11.90;;
55202;SDS011;41077;52.956;6.796;2022-08-03T14:39:59;26.33;;;23.63;;
55202;SDS011;41077;52.956;6.796;2022-08-03T14:42:25;40.92;;;37.28;;
55202;SDS011;41077;52.956;6.796;2022-08-03T14:44:51;20.17;;;10.63;;
55202;SDS011;41077;52.956;6.796;2022-08-03T14:47:17;23.15;;;12.07;;
55202;SDS011;41077;52.956;6.796;2022-08-03T14:49:42;17.02;;;15.45;;
55202;SDS011;41077;52.956;6.796;2022-08-03T14:52:08;17.42;;;11.35;;
55202;SDS011;41077;52.956;6.796;2022-08-03T14:54:34;18.90;;;15.70;;
55202;SDS011;41077;52.956;6.796;2022-08-03T14:57:00;19.55;;;10.85;;
55202;SDS011;41077;52.956;6.796;2022-08-03T14:59:25;20.88;;;12.55;;
55202;SDS011;41077;52.956;6.796;2022-08-03T15:01:51;17.33;;;10.55;;
55202;SDS011;41077;52.956;6.796;2022-08-03T15:04:17;23.55;;;11.52;;
55202;SDS011;41077;52.956;6.796;2022-08-03T15:06:43;14.60;;;10.77;;
55202;SDS011;41077;52.956;6.796;2022-08-03T15:09:09;17.60;;;12.00;;
55202;SDS011;41077;52.956;6.796;2022-08-03T15:11:34;15.65;;;12.25;;
55202;SDS011;41077;52.956;6.796;2022-08-03T15:14:00;27.52;;;19.75;;
55202;SDS011;41077;52.956;6.796;2022-08-03T15:16:26;20.13;;;17.95;;
55202;SDS011;41077;52.956;6.796;2022-08-03T15:18:52;21.73;;;15.30;;
55202;SDS011;41077;52.956;6.796;2022-08-03T15:21:17;19.30;;;10.57;;
55202;SDS011;41077;52.956;6.796;2022-08-03T15:23:43;24.60;;;22.20;;
55202;SDS011;41077;52.956;6.796;2022-08-03T15:26:09;12.82;;;11.63;;